createdAt,value
2018-12-07T00:01:31.269Z,10.34
2018-12-07T00:03:59.507Z,10.37
2018-12-07T00:06:27.724Z,10.37
2018-12-07T00:08:55.996Z,10.39
2018-12-07T00:11:24.213Z,10.41
2018-12-07T00:13:52.468Z,10.47
2018-12-07T00:16:20.698Z,10.45
2018-12-07T00:18:48.889Z,10.43
2018-12-07T00:21:17.242Z,10.44
2018-12-07T00:23:45.466Z,10.42
2018-12-07T00:26:13.641Z,10.48
2018-12-07T00:28:41.907Z,10.48
2018-12-07T00:31:10.121Z,10.46
2018-12-07T00:33:38.344Z,10.49
2018-12-07T00:36:06.573Z,10.49
2018-12-07T00:38:34.896Z,10.53
2018-12-07T00:41:03.145Z,10.52
2018-12-07T00:43:31.344Z,10.56
2018-12-07T00:45:59.546Z,10.59
2018-12-07T00:48:27.780Z,10.61
2018-12-07T00:50:55.976Z,10.61
2018-12-07T00:53:24.201Z,10.61
2018-12-07T00:55:52.404Z,10.66
2018-12-07T00:58:20.633Z,10.66
2018-12-07T01:00:48.844Z,10.70
2018-12-07T01:03:17.265Z,10.73
2018-12-07T01:05:45.473Z,10.77
2018-12-07T01:08:13.697Z,10.76
2018-12-07T01:10:42.101Z,10.81
2018-12-07T01:13:10.314Z,10.79
2018-12-07T01:15:38.549Z,10.77
2018-12-07T01:18:06.873Z,10.78
2018-12-07T01:20:35.105Z,10.80
2018-12-07T01:23:03.321Z,10.76
2018-12-07T01:25:31.572Z,10.76
2018-12-07T01:27:59.770Z,10.76
2018-12-07T01:30:27.989Z,10.77
2018-12-07T01:32:56.408Z,10.73
2018-12-07T01:35:24.626Z,10.76
2018-12-07T01:37:52.841Z,10.76
2018-12-07T01:40:21.077Z,10.78
2018-12-07T01:42:49.301Z,10.82
2018-12-07T01:45:17.645Z,10.80
2018-12-07T01:47:45.970Z,10.86
2018-12-07T01:50:15.633Z,10.82
2018-12-07T01:52:43.869Z,10.79
2018-12-07T01:55:12.173Z,10.89
2018-12-07T01:57:40.429Z,10.85
2018-12-07T02:00:08.997Z,10.83
2018-12-07T02:02:37.316Z,10.86
2018-12-07T02:05:05.881Z,10.91
2018-12-07T02:07:35.304Z,10.86
2018-12-07T02:10:04.087Z,10.91
2018-12-07T02:12:32.417Z,10.94
2018-12-07T02:15:00.642Z,10.89
2018-12-07T02:17:28.996Z,10.92
2018-12-07T02:19:57.188Z,10.91
2018-12-07T02:22:25.405Z,10.90
2018-12-07T02:24:53.664Z,10.92
2018-12-07T02:27:21.861Z,10.97
2018-12-07T02:29:50.117Z,10.95
2018-12-07T02:32:18.329Z,10.91
2018-12-07T02:34:46.636Z,10.94
2018-12-07T02:37:14.870Z,10.94
2018-12-07T02:39:43.084Z,10.93
2018-12-07T02:42:11.417Z,10.91
2018-12-07T02:44:39.614Z,10.91
2018-12-07T02:47:07.968Z,10.87
2018-12-07T02:49:36.170Z,10.87
2018-12-07T02:52:04.616Z,10.93
2018-12-07T02:54:32.939Z,10.89
2018-12-07T02:57:01.169Z,10.92
2018-12-07T02:59:29.394Z,10.90
2018-12-07T03:01:57.680Z,10.93
2018-12-07T03:04:26.043Z,10.89
2018-12-07T03:06:54.249Z,10.94
2018-12-07T03:09:22.626Z,10.90
2018-12-07T03:11:50.945Z,10.86
2018-12-07T03:14:19.213Z,10.91
2018-12-07T03:16:47.440Z,10.90
2018-12-07T03:19:15.673Z,10.85
2018-12-07T03:21:43.877Z,10.87
2018-12-07T03:24:12.212Z,10.90
2018-12-07T03:26:40.433Z,10.86
2018-12-07T03:29:08.640Z,10.83
2018-12-07T03:31:37.035Z,10.87
2018-12-07T03:34:05.452Z,10.92
2018-12-07T03:36:33.790Z,10.78
2018-12-07T03:39:01.984Z,10.76
2018-12-07T03:41:30.181Z,10.71
2018-12-07T03:43:58.464Z,10.65
2018-12-07T03:46:26.665Z,10.66
2018-12-07T03:48:55.123Z,10.62
2018-12-07T03:51:23.324Z,10.67
2018-12-07T03:53:51.537Z,10.59
2018-12-07T03:56:19.776Z,10.57
2018-12-07T03:58:47.970Z,10.57
2018-12-07T04:01:16.380Z,10.56
2018-12-07T04:03:44.949Z,10.51
2018-12-07T04:06:13.219Z,10.49
2018-12-07T04:08:41.448Z,10.41
2018-12-07T04:11:09.788Z,10.43
2018-12-07T04:13:38.027Z,10.40
2018-12-07T04:16:06.324Z,10.37
2018-12-07T04:18:34.552Z,10.42
2018-12-07T04:21:02.796Z,10.43
2018-12-07T04:23:31.317Z,10.44
2018-12-07T04:25:59.701Z,10.44
2018-12-07T04:28:27.991Z,10.39
2018-12-07T04:30:56.222Z,10.42
2018-12-07T04:33:24.442Z,10.41
2018-12-07T04:35:52.770Z,10.47
2018-12-07T04:38:21.176Z,10.42
2018-12-07T04:40:49.615Z,10.48
2018-12-07T04:43:17.901Z,10.47
2018-12-07T04:45:46.141Z,10.46
2018-12-07T04:48:14.345Z,10.38
2018-12-07T04:50:42.700Z,10.44
2018-12-07T04:53:11.038Z,10.35
2018-12-07T04:55:39.235Z,10.35
2018-12-07T04:58:07.746Z,10.36
2018-12-07T05:00:36.561Z,10.35
2018-12-07T05:03:04.760Z,10.32
2018-12-07T05:05:32.985Z,10.38
2018-12-07T05:08:01.215Z,10.40
2018-12-07T05:10:29.437Z,10.43
2018-12-07T05:12:57.654Z,10.42
2018-12-07T05:15:26.021Z,10.40
2018-12-07T05:17:54.306Z,10.46
2018-12-07T05:20:22.529Z,10.45
2018-12-07T05:22:50.761Z,10.44
2018-12-07T05:25:18.988Z,10.41
2018-12-07T05:27:47.214Z,10.42
2018-12-07T05:30:15.426Z,10.46
2018-12-07T05:32:43.703Z,10.39
2018-12-07T05:35:11.902Z,10.44
2018-12-07T05:37:40.193Z,10.50
2018-12-07T05:40:08.540Z,10.47
2018-12-07T05:42:36.854Z,10.45
2018-12-07T05:45:05.350Z,10.43
2018-12-07T05:47:33.657Z,10.43
2018-12-07T05:50:02.572Z,10.39
2018-12-07T05:52:30.841Z,10.43
2018-12-07T05:54:59.037Z,10.44
2018-12-07T05:57:27.235Z,10.45
2018-12-07T05:59:55.578Z,10.45
2018-12-07T06:02:23.800Z,10.52
2018-12-07T06:04:52.026Z,10.43
2018-12-07T06:07:20.221Z,10.49
2018-12-07T06:09:48.465Z,10.50
2018-12-07T06:12:16.664Z,10.54
2018-12-07T06:14:44.888Z,10.57
2018-12-07T06:17:13.089Z,10.60
2018-12-07T06:19:41.336Z,10.63
2018-12-07T06:22:09.541Z,10.64
2018-12-07T06:24:37.751Z,10.62
2018-12-07T06:27:05.976Z,10.61
2018-12-07T06:29:34.188Z,10.65
2018-12-07T06:32:02.528Z,10.63
2018-12-07T06:34:30.729Z,10.54
2018-12-07T06:36:58.957Z,10.60
2018-12-07T06:39:27.157Z,10.60
2018-12-07T06:41:55.376Z,10.55
2018-12-07T06:44:23.597Z,10.61
2018-12-07T06:46:51.818Z,10.55
2018-12-07T06:49:20.037Z,10.56
2018-12-07T06:51:48.364Z,10.54
2018-12-07T06:54:16.596Z,10.56
2018-12-07T06:56:44.786Z,10.58
2018-12-07T06:59:12.983Z,10.52
2018-12-07T07:01:41.216Z,10.55
2018-12-07T07:04:09.484Z,10.52
2018-12-07T07:06:37.829Z,10.53
2018-12-07T07:09:08.324Z,10.54
2018-12-07T07:11:36.780Z,10.54
2018-12-07T07:14:05.400Z,10.56
2018-12-07T07:16:33.700Z,10.57
2018-12-07T07:19:01.940Z,10.56
2018-12-07T07:21:30.132Z,10.56
2018-12-07T07:23:58.325Z,10.55
2018-12-07T07:26:26.606Z,10.58
2018-12-07T07:28:54.808Z,10.60
2018-12-07T07:31:23.105Z,10.63
2018-12-07T07:33:51.334Z,10.62
2018-12-07T07:36:19.569Z,10.63
2018-12-07T07:38:47.765Z,10.66
2018-12-07T07:41:15.956Z,10.69
2018-12-07T07:43:45.911Z,10.69
2018-12-07T07:46:14.315Z,10.68
2018-12-07T07:48:42.528Z,10.72
2018-12-07T07:51:10.758Z,10.76
2018-12-07T07:53:38.985Z,10.78
2018-12-07T07:56:15.182Z,10.78
2018-12-07T07:58:38.154Z,10.82
2018-12-07T08:01:06.356Z,10.88
2018-12-07T08:03:34.588Z,10.87
2018-12-07T08:06:02.876Z,10.96
2018-12-07T08:08:31.250Z,10.99
2018-12-07T08:10:59.469Z,10.99
2018-12-07T08:13:27.706Z,11.04
2018-12-07T08:15:55.954Z,11.06
2018-12-07T08:18:24.189Z,11.08
2018-12-07T08:20:52.429Z,11.11
2018-12-07T08:23:20.644Z,11.17
2018-12-07T08:25:48.840Z,11.23
2018-12-07T08:28:17.199Z,11.22
2018-12-07T08:30:45.370Z,11.29
2018-12-07T08:33:13.588Z,11.35
2018-12-07T08:35:42.041Z,11.36
2018-12-07T08:38:10.286Z,11.42
2018-12-07T08:40:38.580Z,11.47
2018-12-07T08:43:06.779Z,11.48
2018-12-07T08:45:35.029Z,11.49
2018-12-07T08:48:03.337Z,11.56
2018-12-07T08:50:31.569Z,11.57
2018-12-07T08:52:59.757Z,11.60
2018-12-07T08:55:27.953Z,11.61
2018-12-07T08:57:56.173Z,11.67
2018-12-07T09:00:24.586Z,11.69
2018-12-07T09:02:52.793Z,11.69
2018-12-07T09:05:21.025Z,11.73
2018-12-07T09:07:49.221Z,11.72
2018-12-07T09:10:17.446Z,11.74
2018-12-07T09:12:46.002Z,11.75
2018-12-07T09:15:14.289Z,11.80
2018-12-07T09:17:42.533Z,11.85
2018-12-07T09:20:10.729Z,11.85
2018-12-07T09:22:38.960Z,11.84
2018-12-07T09:25:07.588Z,11.87
2018-12-07T09:27:35.861Z,11.90
2018-12-07T09:30:04.905Z,11.89
2018-12-07T09:32:33.133Z,11.93
2018-12-07T09:35:01.421Z,11.90
2018-12-07T09:37:29.703Z,11.94
2018-12-07T09:39:58.025Z,11.91
2018-12-07T09:42:26.366Z,11.87
2018-12-07T09:44:54.547Z,11.82
2018-12-07T09:47:22.764Z,11.84
2018-12-07T09:49:50.992Z,11.84
2018-12-07T09:52:19.272Z,11.83
2018-12-07T09:54:47.508Z,11.83
2018-12-07T09:57:15.762Z,11.85
2018-12-07T09:59:43.980Z,11.89
2018-12-07T10:02:12.210Z,11.86
2018-12-07T10:04:40.435Z,11.88
2018-12-07T10:07:08.757Z,11.87
2018-12-07T10:09:36.981Z,11.86
2018-12-07T10:12:05.248Z,11.88
2018-12-07T10:14:33.481Z,11.89
2018-12-07T10:17:01.708Z,11.90
2018-12-07T10:19:29.900Z,11.93
2018-12-07T10:21:58.100Z,11.94
2018-12-07T10:24:26.320Z,11.98
2018-12-07T10:26:54.652Z,12.00
2018-12-07T10:29:22.880Z,11.98
2018-12-07T10:31:51.081Z,12.00
2018-12-07T10:34:19.313Z,12.00
2018-12-07T10:36:47.513Z,11.99
2018-12-07T10:39:15.744Z,12.03
2018-12-07T10:41:43.977Z,12.00
2018-12-07T10:44:12.210Z,11.97
2018-12-07T10:46:40.437Z,12.04
2018-12-07T10:49:08.761Z,12.02
2018-12-07T10:51:36.984Z,12.04
2018-12-07T10:54:05.201Z,12.05
2018-12-07T10:56:33.419Z,12.09
2018-12-07T10:59:01.653Z,12.07
2018-12-07T11:01:35.411Z,12.07
2018-12-07T11:04:09.161Z,12.12
2018-12-07T11:06:42.593Z,12.03
2018-12-07T11:09:16.137Z,12.03
2018-12-07T11:11:51.572Z,12.04
2018-12-07T11:14:25.162Z,12.04
2018-12-07T11:16:58.628Z,12.01
2018-12-07T11:19:32.306Z,12.06
2018-12-07T11:22:05.965Z,12.05
2018-12-07T11:24:39.441Z,12.06
2018-12-07T11:27:13.679Z,12.06
2018-12-07T11:29:47.368Z,12.11
2018-12-07T11:32:19.029Z,12.11
2018-12-07T11:34:51.677Z,12.08
2018-12-07T11:37:19.869Z,12.08
2018-12-07T11:39:48.463Z,12.13
2018-12-07T11:42:16.672Z,12.06
2018-12-07T11:44:44.872Z,12.16
2018-12-07T11:47:13.094Z,12.13
2018-12-07T11:49:41.277Z,12.08
2018-12-07T11:52:09.503Z,12.08
2018-12-07T11:54:37.693Z,12.10
2018-12-07T11:57:05.909Z,12.06
2018-12-07T11:59:34.160Z,12.04
2018-12-07T12:02:02.381Z,12.01
2018-12-07T12:04:30.597Z,11.96
2018-12-07T12:06:58.817Z,12.03
2018-12-07T12:09:27.027Z,11.94
2018-12-07T12:11:55.243Z,11.92
2018-12-07T12:14:23.441Z,11.94
2018-12-07T12:16:51.671Z,11.86
2018-12-07T12:19:19.880Z,11.88
2018-12-07T12:21:48.221Z,11.89
2018-12-07T12:24:16.425Z,11.81
2018-12-07T12:26:44.609Z,11.86
2018-12-07T12:29:12.841Z,11.83
2018-12-07T12:31:41.118Z,11.86
2018-12-07T12:34:09.347Z,11.91
2018-12-07T12:36:37.538Z,11.87
2018-12-07T12:39:07.509Z,11.88
2018-12-07T12:41:35.721Z,11.87
2018-12-07T12:44:04.097Z,11.78
2018-12-07T12:46:32.311Z,11.74
2018-12-07T12:49:00.517Z,11.78
2018-12-07T12:51:28.734Z,11.76
2018-12-07T12:53:57.508Z,11.80
2018-12-07T12:56:25.753Z,11.72
2018-12-07T12:58:53.984Z,11.74
2018-12-07T13:01:22.177Z,11.76
2018-12-07T13:03:50.468Z,11.72
2018-12-07T13:06:18.805Z,11.77
2018-12-07T13:08:46.984Z,11.77
2018-12-07T13:11:15.228Z,11.73
2018-12-07T13:13:43.445Z,11.80
2018-12-07T13:16:11.885Z,11.75
2018-12-07T13:18:40.103Z,11.72
2018-12-07T13:21:08.293Z,11.71
2018-12-07T13:23:36.565Z,11.69
2018-12-07T13:26:04.761Z,11.67
2018-12-07T13:28:32.978Z,11.66
2018-12-07T13:31:01.218Z,11.64
2018-12-07T13:33:29.438Z,11.67
2018-12-07T13:35:57.668Z,11.65
2018-12-07T13:38:25.889Z,11.66
2018-12-07T13:40:54.097Z,11.65
2018-12-07T13:43:22.779Z,11.64
2018-12-07T13:45:51.069Z,11.63
2018-12-07T13:48:19.483Z,11.72
2018-12-07T13:50:47.816Z,11.67
2018-12-07T13:53:16.234Z,11.70
2018-12-07T13:55:44.947Z,11.69
2018-12-07T13:58:13.356Z,11.74
2018-12-07T14:00:41.877Z,11.75
2018-12-07T14:03:10.365Z,11.73
2018-12-07T14:05:38.662Z,11.72
2018-12-07T14:08:07.092Z,11.76
2018-12-07T14:10:35.616Z,11.81
2018-12-07T14:13:04.030Z,11.74
2018-12-07T14:15:32.578Z,11.74
2018-12-07T14:18:01.015Z,11.75
2018-12-07T14:20:29.444Z,11.82
2018-12-07T14:22:57.927Z,11.87
2018-12-07T14:25:26.230Z,11.88
2018-12-07T14:27:54.639Z,11.83
2018-12-07T14:30:23.176Z,11.83
2018-12-07T14:32:51.563Z,11.85
2018-12-07T14:35:20.049Z,11.84
2018-12-07T14:37:48.570Z,11.85
2018-12-07T14:40:16.986Z,11.78
2018-12-07T14:42:45.575Z,11.78
2018-12-07T14:45:13.896Z,11.78
2018-12-07T14:47:42.469Z,11.73
2018-12-07T14:50:11.001Z,11.67
2018-12-07T14:52:39.234Z,11.73
2018-12-07T14:55:07.743Z,11.67
2018-12-07T14:57:36.198Z,11.64
2018-12-07T15:00:06.750Z,11.63
2018-12-07T15:02:35.151Z,11.68
2018-12-07T15:05:04.217Z,11.66
2018-12-07T15:07:32.636Z,11.59
2018-12-07T15:10:00.973Z,11.60
2018-12-07T15:12:29.431Z,11.55
2018-12-07T15:14:57.779Z,11.56
2018-12-07T15:17:26.048Z,11.52
2018-12-07T15:19:54.423Z,11.55
2018-12-07T15:22:22.689Z,11.54
2018-12-07T15:24:51.035Z,11.57
2018-12-07T15:27:19.484Z,11.53
2018-12-07T15:29:47.946Z,11.55
2018-12-07T15:32:16.278Z,11.58
2018-12-07T15:34:44.776Z,11.56
2018-12-07T15:37:13.228Z,11.59
2018-12-07T15:39:41.450Z,11.61
2018-12-07T15:42:09.773Z,11.61
2018-12-07T15:44:38.052Z,11.63
2018-12-07T15:47:06.714Z,11.69
2018-12-07T15:49:37.184Z,11.68
2018-12-07T15:52:05.805Z,11.63
2018-12-07T15:54:34.248Z,11.67
2018-12-07T15:57:02.501Z,11.68
2018-12-07T15:59:34.474Z,11.69
2018-12-07T16:02:01.010Z,11.73
2018-12-07T16:04:29.408Z,11.70
2018-12-07T16:06:57.721Z,11.71
2018-12-07T16:09:26.103Z,11.68
2018-12-07T16:11:54.404Z,11.65
2018-12-07T16:14:22.641Z,11.67
2018-12-07T16:16:51.209Z,11.60
2018-12-07T16:19:19.586Z,11.68
2018-12-07T16:21:48.101Z,11.68
2018-12-07T16:24:16.613Z,11.67
2018-12-07T16:26:45.197Z,11.66
2018-12-07T16:29:13.556Z,11.64
2018-12-07T16:31:42.027Z,11.62
2018-12-07T16:34:10.457Z,11.63
2018-12-07T16:36:38.793Z,11.70
2018-12-07T16:39:08.391Z,11.67
2018-12-07T16:41:36.973Z,11.62
2018-12-07T16:44:05.425Z,11.63
2018-12-07T16:46:33.790Z,11.59
2018-12-07T16:49:02.406Z,11.60
2018-12-07T16:51:30.849Z,11.61
2018-12-07T16:53:59.170Z,11.60
2018-12-07T16:56:27.845Z,11.59
2018-12-07T16:58:56.271Z,11.61
2018-12-07T17:01:24.692Z,11.62
2018-12-07T17:03:53.381Z,11.64
2018-12-07T17:06:21.823Z,11.64
2018-12-07T17:08:50.335Z,11.65
2018-12-07T17:11:18.996Z,11.60
2018-12-07T17:13:47.609Z,11.57
2018-12-07T17:16:15.934Z,11.61
2018-12-07T17:18:44.167Z,11.59
2018-12-07T17:21:12.492Z,11.52
2018-12-07T17:23:41.103Z,11.52
2018-12-07T17:26:09.397Z,11.48
2018-12-07T17:28:37.669Z,11.50
2018-12-07T17:31:05.865Z,11.52
2018-12-07T17:33:34.165Z,11.47
2018-12-07T17:36:02.464Z,11.51
2018-12-07T17:38:30.752Z,11.51
2018-12-07T17:40:59.143Z,11.52
2018-12-07T17:43:27.552Z,11.46
2018-12-07T17:45:56.082Z,11.47
2018-12-07T17:48:24.683Z,11.44
2018-12-07T17:50:53.139Z,11.43
2018-12-07T17:53:21.608Z,11.38
2018-12-07T17:55:50.041Z,11.42
2018-12-07T18:01:02.004Z,11.36
2018-12-07T18:03:30.445Z,11.38
2018-12-07T18:05:58.844Z,11.40
2018-12-07T18:08:27.147Z,11.43
2018-12-07T18:10:55.725Z,11.44
2018-12-07T18:13:24.096Z,11.44
2018-12-07T18:15:52.369Z,11.39
2018-12-07T18:18:20.833Z,11.40
2018-12-07T18:20:49.324Z,11.37
2018-12-07T18:23:17.645Z,11.35
2018-12-07T18:25:46.017Z,11.39
2018-12-07T18:28:14.437Z,11.41
2018-12-07T18:30:42.732Z,11.39
2018-12-07T18:33:11.138Z,11.38
2018-12-07T18:35:39.548Z,11.33
2018-12-07T18:38:08.537Z,11.36
2018-12-07T18:40:37.075Z,11.36
2018-12-07T18:43:05.634Z,11.40
2018-12-07T18:45:34.188Z,11.35
2018-12-07T18:48:02.654Z,11.37
2018-12-07T18:50:31.084Z,11.36
2018-12-07T18:53:00.133Z,11.35
2018-12-07T18:55:28.428Z,11.39
2018-12-07T18:57:56.729Z,11.30
2018-12-07T19:00:25.320Z,11.34
2018-12-07T19:02:53.749Z,11.34
2018-12-07T19:05:22.327Z,11.35
2018-12-07T19:07:50.880Z,11.33
2018-12-07T19:10:19.438Z,11.34
2018-12-07T19:12:47.808Z,11.35
2018-12-07T19:15:16.178Z,11.32
2018-12-07T19:17:44.547Z,11.30
2018-12-07T19:20:13.089Z,11.32
2018-12-07T19:22:41.405Z,11.31
2018-12-07T19:25:09.723Z,11.34
2018-12-07T19:27:37.993Z,11.33
2018-12-07T19:30:14.609Z,11.27
2018-12-07T19:32:40.386Z,11.21
2018-12-07T19:35:08.764Z,11.25
2018-12-07T19:37:37.293Z,11.22
2018-12-07T19:40:06.538Z,11.13
2018-12-07T19:42:34.977Z,11.14
2018-12-07T19:45:03.674Z,11.11
2018-12-07T19:47:32.138Z,11.10
2018-12-07T19:50:00.443Z,11.03
2018-12-07T19:52:28.931Z,11.14
2018-12-07T19:54:57.574Z,11.05
2018-12-07T19:57:25.977Z,10.98
2018-12-07T19:59:54.501Z,10.23
2018-12-07T20:02:22.764Z,9.70
2018-12-07T20:04:51.110Z,9.44
2018-12-07T20:07:19.501Z,9.21
2018-12-07T20:09:48.040Z,9.06
2018-12-07T20:12:16.307Z,8.83
2018-12-07T20:14:44.757Z,8.74
2018-12-07T20:17:13.118Z,8.77
2018-12-07T20:19:41.324Z,8.77
2018-12-07T20:22:09.706Z,8.85
2018-12-07T20:24:38.166Z,8.87
2018-12-07T20:27:06.710Z,8.82
2018-12-07T20:29:35.343Z,8.79
2018-12-07T20:32:03.885Z,8.76
2018-12-07T20:34:32.192Z,8.65
2018-12-07T20:37:00.588Z,8.64
2018-12-07T20:39:29.493Z,8.62
2018-12-07T20:41:57.963Z,8.55
2018-12-07T20:44:26.337Z,8.57
2018-12-07T20:46:54.911Z,8.63
2018-12-07T20:49:23.998Z,8.66
2018-12-07T20:51:52.615Z,8.69
2018-12-07T20:54:21.040Z,8.64
2018-12-07T20:56:49.419Z,8.62
2018-12-07T20:59:17.805Z,8.55
2018-12-07T21:01:51.616Z,8.50
2018-12-07T21:04:38.286Z,8.40
2018-12-07T21:08:14.533Z,8.42
2018-12-07T21:11:19.387Z,8.38
2018-12-07T21:14:39.984Z,8.28
2018-12-07T21:17:15.789Z,8.24
2018-12-07T21:19:48.275Z,8.20
2018-12-07T21:22:16.938Z,8.25
2018-12-07T21:24:45.309Z,8.24
2018-12-07T21:27:13.854Z,8.20
2018-12-07T21:29:42.291Z,8.22
2018-12-07T21:32:16.260Z,8.19
2018-12-07T21:34:55.318Z,8.22
2018-12-07T21:37:23.957Z,8.24
2018-12-07T21:40:03.644Z,8.18
2018-12-07T21:42:31.918Z,8.19
2018-12-07T21:45:00.112Z,8.23
2018-12-07T21:47:58.713Z,8.19
2018-12-07T21:50:27.104Z,8.22
2018-12-07T21:52:55.447Z,8.25
2018-12-07T21:55:23.997Z,8.24
2018-12-07T21:57:52.451Z,8.30
2018-12-07T22:00:20.828Z,8.30
2018-12-07T22:02:49.306Z,8.25
2018-12-07T22:05:17.797Z,8.26
2018-12-07T22:07:46.377Z,8.21
2018-12-07T22:10:14.943Z,8.27
2018-12-07T22:12:43.317Z,8.21
2018-12-07T22:15:11.621Z,8.23
2018-12-07T22:17:40.378Z,8.21
2018-12-07T22:20:08.751Z,8.09
2018-12-07T22:22:37.000Z,8.06
2018-12-07T22:25:05.497Z,8.12
2018-12-07T22:27:33.866Z,8.09
2018-12-07T22:30:02.260Z,8.18
2018-12-07T22:32:30.739Z,8.12
2018-12-07T22:34:59.207Z,8.02
2018-12-07T22:37:27.910Z,8.00
2018-12-07T22:39:56.427Z,8.03
2018-12-07T22:42:24.800Z,8.01
2018-12-07T22:44:53.163Z,8.05
2018-12-07T22:47:21.764Z,8.05
2018-12-07T22:49:50.076Z,7.98
2018-12-07T22:52:18.308Z,7.98
2018-12-07T22:54:46.525Z,8.01
2018-12-07T22:57:14.761Z,7.96
2018-12-07T22:59:42.978Z,7.95
2018-12-07T23:02:11.804Z,7.98
2018-12-07T23:04:40.065Z,7.93
2018-12-07T23:07:08.352Z,7.93
2018-12-07T23:09:36.962Z,7.90
2018-12-07T23:12:05.396Z,7.90
2018-12-07T23:14:33.837Z,7.84
2018-12-07T23:17:02.055Z,7.91
2018-12-07T23:19:30.292Z,7.88
2018-12-07T23:21:58.501Z,7.92
2018-12-07T23:24:26.698Z,7.90
2018-12-07T23:26:54.948Z,7.96
2018-12-07T23:29:23.714Z,7.92
2018-12-07T23:31:52.048Z,7.98
2018-12-07T23:34:20.321Z,7.95
2018-12-07T23:36:48.517Z,7.90
2018-12-07T23:39:16.881Z,7.93
2018-12-07T23:41:45.124Z,7.93
2018-12-07T23:44:13.442Z,7.95
2018-12-07T23:46:41.660Z,7.94
2018-12-07T23:49:09.901Z,7.92
2018-12-07T23:51:38.112Z,7.89
2018-12-07T23:54:06.374Z,7.91
2018-12-07T23:56:34.701Z,7.88
2018-12-07T23:59:03.001Z,7.83
